CZPC

Pincher Creek Airport

Pincher Creek, , Canada
METAR CZPC 190800Z AUTO 01003KT 9SM OVC110 06/M03 A3027 RMK SLP255
Observed Flight Rules
Oct-19 @ 08:00 UTC (an hour ago) Visual Flight Rules
Wind Visibility Clouds
10° at 3 knots 9 miles
  • Overcast at 11,000' AGL
Temperatures Readings
Current 6°C / 43°F
Dewpoint -3°C / 27°F
Humidity 53%
Altimeter 30.27" Hg
Pressure 1025.5 hPa
Elevation 1190
METAR CZPC 190800Z AUTO 01003KT 9SM OVC110 06/M03 A3027 RMK SLP255
Observed Flight Rules
Oct-19 @ 08:00 UTC
(an hour ago)
VFR
Wind Visibility
10° at 3 knots 9 miles
Clouds
  • Overcast at 11,000' AGL
Temperature Dewpoint
6°C / 43°F -3°C / 27°F
Humidity Altimeter Pressure
53% 30.27" Hg 1025.5 hPa